createdAt,value
2023-03-08T00:00:48.921Z,99.99
2023-03-08T00:01:48.912Z,99.99
2023-03-08T00:02:48.900Z,99.99
2023-03-08T00:03:48.987Z,99.99
2023-03-08T00:04:48.946Z,99.99
2023-03-08T00:05:48.880Z,99.99
2023-03-08T00:06:48.891Z,99.99
2023-03-08T00:07:48.884Z,99.99
2023-03-08T00:08:48.909Z,99.99
2023-03-08T00:09:48.873Z,99.99
2023-03-08T00:10:48.840Z,99.99
2023-03-08T00:11:48.847Z,99.99
2023-03-08T00:12:48.880Z,99.99
2023-03-08T00:13:48.825Z,99.99
2023-03-08T00:14:48.882Z,99.99
2023-03-08T00:15:48.854Z,99.99
2023-03-08T00:16:48.808Z,99.99
2023-03-08T00:17:48.800Z,99.99
2023-03-08T00:18:48.794Z,99.99
2023-03-08T00:19:48.782Z,99.99
2023-03-08T00:20:48.836Z,99.99
2023-03-08T00:21:48.755Z,99.99
2023-03-08T00:22:48.756Z,99.99
2023-03-08T00:23:48.739Z,99.99
2023-03-08T00:24:48.737Z,99.99
2023-03-08T00:25:48.753Z,99.99
2023-03-08T00:26:48.741Z,99.99
2023-03-08T00:27:48.729Z,99.99
2023-03-08T00:28:48.726Z,99.99
2023-03-08T00:29:48.703Z,99.99
2023-03-08T00:30:48.731Z,99.99
2023-03-08T00:31:48.746Z,99.99
2023-03-08T00:32:48.692Z,99.99
2023-03-08T00:33:49.447Z,99.99
2023-03-08T00:34:48.665Z,99.99
2023-03-08T00:35:48.711Z,99.99
2023-03-08T00:36:48.657Z,99.99
2023-03-08T00:37:48.641Z,99.99
2023-03-08T00:38:48.632Z,99.99
2023-03-08T00:39:48.624Z,99.99
2023-03-08T00:40:48.646Z,99.99
2023-03-08T00:41:48.614Z,99.99
2023-03-08T00:42:48.639Z,99.99
2023-03-08T00:43:48.605Z,99.99
2023-03-08T00:44:48.601Z,99.99
2023-03-08T00:45:50.205Z,99.99
2023-03-08T00:46:49.590Z,99.99
2023-03-08T00:47:48.564Z,99.99
2023-03-08T00:48:48.589Z,99.99
2023-03-08T00:49:48.564Z,99.99
2023-03-08T00:50:48.571Z,99.99
2023-03-08T00:51:48.543Z,99.99
2023-03-08T00:52:48.541Z,99.99
2023-03-08T00:53:48.531Z,99.99
2023-03-08T00:54:48.554Z,99.99
2023-03-08T00:55:48.566Z,99.99
2023-03-08T00:56:48.504Z,99.99
2023-03-08T00:57:48.501Z,99.99
2023-03-08T00:58:48.493Z,99.99
2023-03-08T00:59:48.479Z,99.99
2023-03-08T01:00:48.622Z,99.99
2023-03-08T01:01:48.462Z,99.99
2023-03-08T01:02:48.451Z,99.99
2023-03-08T01:03:48.456Z,99.99
2023-03-08T01:04:48.466Z,99.99
2023-03-08T01:05:48.452Z,99.99
2023-03-08T01:06:48.424Z,99.99
2023-03-08T01:07:48.421Z,99.99
2023-03-08T01:08:48.428Z,99.99
2023-03-08T01:09:48.403Z,99.99
2023-03-08T01:10:48.435Z,99.99
2023-03-08T01:11:48.389Z,99.99
2023-03-08T01:12:48.379Z,99.95
2023-03-08T01:13:48.367Z,99.84
2023-03-08T01:14:48.357Z,99.95
2023-03-08T01:15:48.388Z,99.11
2023-03-08T01:16:48.347Z,99.22
2023-03-08T01:17:48.358Z,98.80
2023-03-08T01:18:48.985Z,98.18
2023-03-08T01:19:48.327Z,98.07
2023-03-08T01:20:48.370Z,97.86
2023-03-08T01:21:48.307Z,97.55
2023-03-08T01:22:48.316Z,97.24
2023-03-08T01:23:48.307Z,97.55
2023-03-08T01:24:48.288Z,97.55
2023-03-08T01:25:48.302Z,97.03
2023-03-08T01:26:48.267Z,97.24
2023-03-08T01:27:48.264Z,97.03
2023-03-08T01:28:48.262Z,97.24
2023-03-08T01:29:48.240Z,97.65
2023-03-08T01:30:48.268Z,97.61
2023-03-08T01:31:48.232Z,98.07
2023-03-08T01:32:48.225Z,97.65
2023-03-08T01:33:48.254Z,98.07
2023-03-08T01:34:48.211Z,98.28
2023-03-08T01:35:48.284Z,98.18
2023-03-08T01:36:48.248Z,98.59
2023-03-08T01:37:48.186Z,99.07
2023-03-08T01:38:48.185Z,98.86
2023-03-08T01:39:48.182Z,98.86
2023-03-08T01:40:48.186Z,99.22
2023-03-08T01:41:48.187Z,99.07
2023-03-08T01:42:48.160Z,99.69
2023-03-08T01:43:48.163Z,99.84
2023-03-08T01:44:48.136Z,99.69
2023-03-08T01:45:48.179Z,99.59
2023-03-08T01:46:48.125Z,99.53
2023-03-08T01:47:48.125Z,99.74
2023-03-08T01:48:48.129Z,99.99
2023-03-08T01:49:48.098Z,99.99
2023-03-08T01:50:48.116Z,99.99
2023-03-08T01:51:48.097Z,99.99
2023-03-08T01:52:48.096Z,99.99
2023-03-08T01:53:48.067Z,99.99
2023-03-08T01:54:48.065Z,99.99
2023-03-08T01:55:48.044Z,99.99
2023-03-08T01:56:48.076Z,99.99
2023-03-08T01:57:48.042Z,99.99
2023-03-08T01:58:48.040Z,99.99
2023-03-08T01:59:48.027Z,99.99
2023-03-08T02:00:48.049Z,99.99
2023-03-08T02:01:48.030Z,99.99
2023-03-08T02:02:48.016Z,99.99
2023-03-08T02:03:47.995Z,99.99
2023-03-08T02:04:48.006Z,99.99
2023-03-08T02:05:47.985Z,99.99
2023-03-08T02:06:48.006Z,99.99
2023-03-08T02:07:47.988Z,99.99
2023-03-08T02:08:47.975Z,99.99
2023-03-08T02:09:47.983Z,99.99
2023-03-08T02:10:47.938Z,99.99
2023-03-08T02:11:47.974Z,99.99
2023-03-08T02:12:47.945Z,99.99
2023-03-08T02:13:47.937Z,99.99
2023-03-08T02:14:47.917Z,99.99
2023-03-08T02:15:47.929Z,99.99
2023-03-08T02:16:47.934Z,99.99
2023-03-08T02:17:47.896Z,99.99
2023-03-08T02:18:47.892Z,99.99
2023-03-08T02:19:47.878Z,99.99
2023-03-08T02:20:47.872Z,99.99
2023-03-08T02:21:47.888Z,99.99
2023-03-08T02:22:47.863Z,99.99
2023-03-08T02:23:47.851Z,99.99
2023-03-08T02:24:47.839Z,99.99
2023-03-08T02:25:47.861Z,99.99
2023-03-08T02:26:47.852Z,99.99
2023-03-08T02:27:47.827Z,99.99
2023-03-08T02:28:47.816Z,99.99
2023-03-08T02:29:47.828Z,99.99
2023-03-08T02:30:47.874Z,99.99
2023-03-08T02:31:47.821Z,99.99
2023-03-08T02:32:47.789Z,99.99
2023-03-08T02:33:47.782Z,99.99
2023-03-08T02:34:47.811Z,99.99
2023-03-08T02:35:47.788Z,99.99
2023-03-08T02:36:47.780Z,99.99
2023-03-08T02:37:47.752Z,99.99
2023-03-08T02:38:47.781Z,99.99
2023-03-08T02:39:47.738Z,99.99
2023-03-08T02:40:47.710Z,99.99
2023-03-08T02:41:48.744Z,99.99
2023-03-08T02:42:47.710Z,99.99
2023-03-08T02:43:47.712Z,99.99
2023-03-08T02:44:47.693Z,99.99
2023-03-08T02:45:47.688Z,99.99
2023-03-08T02:46:47.717Z,99.99
2023-03-08T02:47:47.682Z,99.99
2023-03-08T02:48:47.675Z,99.99
2023-03-08T02:49:47.661Z,99.99
2023-03-08T02:50:47.646Z,99.99
2023-03-08T02:51:47.691Z,99.99
2023-03-08T02:52:47.626Z,99.99
2023-03-08T02:53:47.626Z,99.99
2023-03-08T02:54:47.627Z,99.99
2023-03-08T02:55:47.651Z,99.99
2023-03-08T02:56:47.634Z,99.99
2023-03-08T02:57:47.594Z,99.99
2023-03-08T02:58:47.637Z,99.99
2023-03-08T02:59:47.578Z,99.99
2023-03-08T03:00:47.592Z,99.99
2023-03-08T03:01:47.621Z,99.99
2023-03-08T03:02:47.581Z,99.99
2023-03-08T03:03:47.584Z,99.99
2023-03-08T03:04:47.533Z,99.99
2023-03-08T03:05:48.543Z,99.99
2023-03-08T03:06:47.530Z,99.99
2023-03-08T03:07:47.541Z,99.99
2023-03-08T03:08:47.538Z,99.99
2023-03-08T03:09:47.501Z,99.99
2023-03-08T03:10:47.494Z,99.99
2023-03-08T03:11:47.501Z,99.99
2023-03-08T03:12:47.507Z,99.99
2023-03-08T03:13:47.465Z,99.99
2023-03-08T03:14:47.459Z,99.99
2023-03-08T03:15:47.516Z,99.99
2023-03-08T03:16:47.442Z,99.99
2023-03-08T03:17:47.524Z,99.99
2023-03-08T03:18:47.420Z,99.99
2023-03-08T03:19:47.409Z,99.99
2023-03-08T03:20:47.402Z,99.99
2023-03-08T03:21:47.401Z,99.99
2023-03-08T03:22:47.426Z,99.99
2023-03-08T03:23:47.378Z,99.99
2023-03-08T03:24:47.373Z,99.99
2023-03-08T03:25:47.371Z,99.99
2023-03-08T03:26:47.355Z,99.99
2023-03-08T03:27:47.383Z,99.99
2023-03-08T03:28:47.343Z,99.99
2023-03-08T03:29:47.347Z,99.99
2023-03-08T03:30:47.397Z,99.99
2023-03-08T03:31:47.321Z,99.99
2023-03-08T03:32:47.335Z,99.99
2023-03-08T03:33:47.314Z,99.99
2023-03-08T03:34:47.297Z,99.99
2023-03-08T03:35:47.346Z,99.99
2023-03-08T03:36:47.279Z,99.99
2023-03-08T03:37:47.312Z,99.99
2023-03-08T03:38:47.268Z,99.99
2023-03-08T03:39:47.256Z,99.99
2023-03-08T03:40:47.250Z,99.99
2023-03-08T03:41:47.242Z,99.99
2023-03-08T03:42:47.275Z,99.99
2023-03-08T03:43:47.255Z,99.99
2023-03-08T03:44:47.213Z,99.99
2023-03-08T03:45:47.211Z,99.99
2023-03-08T03:46:47.257Z,99.99
2023-03-08T03:47:47.193Z,99.99
2023-03-08T03:48:47.236Z,99.99
2023-03-08T03:49:48.136Z,99.99
2023-03-08T03:50:47.266Z,99.99
2023-03-08T03:51:47.215Z,99.99
2023-03-08T03:52:47.169Z,99.99
2023-03-08T03:53:47.175Z,99.99
2023-03-08T03:54:47.190Z,99.99
2023-03-08T03:55:47.144Z,99.99
2023-03-08T03:56:47.176Z,99.99
2023-03-08T03:57:47.152Z,99.99
2023-03-08T03:58:47.166Z,99.99
2023-03-08T03:59:47.120Z,99.99
2023-03-08T04:00:47.148Z,99.99
2023-03-08T04:01:47.087Z,99.99
2023-03-08T04:02:48.119Z,99.99
2023-03-08T04:03:47.180Z,99.99
2023-03-08T04:04:47.066Z,99.99
2023-03-08T04:05:47.067Z,99.99
2023-03-08T04:06:47.057Z,99.99
2023-03-08T04:07:47.053Z,99.99
2023-03-08T04:08:47.062Z,99.99
2023-03-08T04:09:47.034Z,99.99
2023-03-08T04:10:47.027Z,99.99
2023-03-08T04:11:47.035Z,99.99
2023-03-08T04:12:47.088Z,99.99
2023-03-08T04:13:47.025Z,99.99
2023-03-08T04:14:46.997Z,99.99
2023-03-08T04:15:47.682Z,99.99
2023-03-08T04:16:47.030Z,99.99
2023-03-08T04:17:46.970Z,99.99
2023-03-08T04:18:46.993Z,99.99
2023-03-08T04:19:46.962Z,99.99
2023-03-08T04:20:46.942Z,99.99
2023-03-08T04:21:46.933Z,99.99
2023-03-08T04:22:46.931Z,99.99
2023-03-08T04:23:46.950Z,99.99
2023-03-08T04:24:46.927Z,99.99
2023-03-08T04:25:46.901Z,99.99
2023-03-08T04:26:46.899Z,99.99
2023-03-08T04:27:46.882Z,99.99
2023-03-08T04:28:46.920Z,99.99
2023-03-08T04:29:46.870Z,99.99
2023-03-08T04:30:46.863Z,99.99
2023-03-08T04:31:46.867Z,99.99
2023-03-08T04:32:46.852Z,99.99
2023-03-08T04:33:46.926Z,99.99
2023-03-08T04:34:46.837Z,99.99
2023-03-08T04:35:46.857Z,99.99
2023-03-08T04:36:46.827Z,99.99
2023-03-08T04:37:48.782Z,99.99
2023-03-08T04:38:46.842Z,99.99
2023-03-08T04:39:46.819Z,99.99
2023-03-08T04:40:47.790Z,99.99
2023-03-08T04:41:46.782Z,99.99
2023-03-08T04:42:46.777Z,99.99
2023-03-08T04:43:46.779Z,99.99
2023-03-08T04:44:46.789Z,99.99
2023-03-08T04:45:46.751Z,99.99
2023-03-08T04:46:46.924Z,99.99
2023-03-08T04:47:46.733Z,99.99
2023-03-08T04:48:46.722Z,99.99
2023-03-08T04:49:46.752Z,99.99
2023-03-08T04:50:46.734Z,99.99
2023-03-08T04:51:46.701Z,99.99
2023-03-08T04:52:46.704Z,99.99
2023-03-08T04:53:46.685Z,99.99
2023-03-08T04:54:46.756Z,99.99
2023-03-08T04:55:46.671Z,99.99
2023-03-08T04:56:46.664Z,99.99
2023-03-08T04:57:46.658Z,99.99
2023-03-08T04:58:46.674Z,99.99
2023-03-08T04:59:46.662Z,99.99
2023-03-08T05:00:46.632Z,99.99
2023-03-08T05:01:46.656Z,99.99
2023-03-08T05:02:46.636Z,99.99
2023-03-08T05:03:46.615Z,99.99
2023-03-08T05:04:46.702Z,99.99
2023-03-08T05:05:46.593Z,99.99
2023-03-08T05:06:46.598Z,99.99
2023-03-08T05:07:46.573Z,99.99
2023-03-08T05:08:46.577Z,99.99
2023-03-08T05:09:46.592Z,99.88
2023-03-08T05:10:46.575Z,99.99
2023-03-08T05:11:46.549Z,99.99
2023-03-08T05:12:46.542Z,99.99
2023-03-08T05:13:46.540Z,99.99
2023-03-08T05:14:46.554Z,99.99
2023-03-08T05:15:46.525Z,99.99
2023-03-08T05:16:46.624Z,99.99
2023-03-08T05:17:46.522Z,99.99
2023-03-08T05:18:46.496Z,99.99
2023-03-08T05:19:46.540Z,99.99
2023-03-08T05:20:46.484Z,99.99
2023-03-08T05:21:46.474Z,99.99
2023-03-08T05:22:58.305Z,99.99
2023-03-08T05:23:48.484Z,99.99
2023-03-08T05:24:46.562Z,99.99
2023-03-08T05:25:46.443Z,99.99
2023-03-08T05:26:46.434Z,99.99
2023-03-08T05:27:46.454Z,99.99
2023-03-08T05:28:46.413Z,99.99
2023-03-08T05:29:47.440Z,99.99
2023-03-08T05:30:46.399Z,99.99
2023-03-08T05:31:46.496Z,99.99
2023-03-08T05:32:46.505Z,99.99
2023-03-08T05:33:46.417Z,99.99
2023-03-08T05:34:46.396Z,99.99
2023-03-08T05:35:46.401Z,99.99
2023-03-08T05:36:46.363Z,99.99
2023-03-08T05:37:46.447Z,99.99
2023-03-08T05:38:46.352Z,99.99
2023-03-08T05:39:46.356Z,99.99
2023-03-08T05:40:46.326Z,99.99
2023-03-08T05:41:46.318Z,99.99
2023-03-08T05:42:46.309Z,99.99
2023-03-08T05:43:46.301Z,99.99
2023-03-08T05:44:46.355Z,99.99
2023-03-08T05:45:46.480Z,99.99
2023-03-08T05:46:46.313Z,99.99
2023-03-08T05:47:46.277Z,99.99
2023-03-08T05:48:46.277Z,99.99
2023-03-08T05:49:46.281Z,99.99
2023-03-08T05:50:46.249Z,99.99
2023-03-08T05:51:46.268Z,99.99
2023-03-08T05:52:46.252Z,99.99
2023-03-08T05:53:46.234Z,99.99
2023-03-08T05:54:46.268Z,99.99
2023-03-08T05:55:46.241Z,99.99
2023-03-08T05:56:46.199Z,99.99
2023-03-08T05:57:46.187Z,99.99
2023-03-08T05:58:48.320Z,99.99
2023-03-08T05:59:47.203Z,99.99
2023-03-08T06:00:46.169Z,99.99
2023-03-08T06:01:46.188Z,99.99
2023-03-08T06:02:46.183Z,99.99
2023-03-08T06:03:46.162Z,99.99
2023-03-08T06:04:46.174Z,99.99
2023-03-08T06:05:46.128Z,99.99
2023-03-08T06:06:46.182Z,99.99
2023-03-08T06:07:46.126Z,99.99
2023-03-08T06:08:46.104Z,99.99
2023-03-08T06:09:47.028Z,99.99
2023-03-08T06:10:46.090Z,99.99
2023-03-08T06:11:46.084Z,99.99
2023-03-08T06:12:46.091Z,99.99
2023-03-08T06:13:46.079Z,99.99
2023-03-08T06:14:46.113Z,99.99
2023-03-08T06:15:46.056Z,99.93
2023-03-08T06:16:46.092Z,99.99
2023-03-08T06:17:46.058Z,99.73
2023-03-08T06:18:46.033Z,99.99
2023-03-08T06:19:46.059Z,99.99
2023-03-08T06:20:46.025Z,99.99
2023-03-08T06:21:46.004Z,99.99
2023-03-08T06:22:45.994Z,99.99
2023-03-08T06:23:45.996Z,99.99
2023-03-08T06:24:46.013Z,99.56
2023-03-08T06:25:45.982Z,99.99
2023-03-08T06:26:45.968Z,99.99
2023-03-08T06:27:45.964Z,99.99
2023-03-08T06:28:45.955Z,99.99
2023-03-08T06:29:45.979Z,99.99
2023-03-08T06:30:45.977Z,99.99
2023-03-08T06:31:45.933Z,99.99
2023-03-08T06:32:46.038Z,99.99
2023-03-08T06:33:46.001Z,99.83
2023-03-08T06:34:45.934Z,99.62
2023-03-08T06:35:45.952Z,99.99
2023-03-08T06:36:45.897Z,99.99
2023-03-08T06:37:45.911Z,99.98
2023-03-08T06:38:45.886Z,99.99
2023-03-08T06:39:45.915Z,99.62
2023-03-08T06:40:45.864Z,99.62
2023-03-08T06:41:45.874Z,99.93
2023-03-08T06:42:45.852Z,99.99
2023-03-08T06:43:45.844Z,99.98
2023-03-08T06:44:45.840Z,99.99
2023-03-08T06:45:45.890Z,99.99
2023-03-08T06:46:45.816Z,99.99
2023-03-08T06:47:45.812Z,99.99
2023-03-08T06:48:45.815Z,99.99
2023-03-08T06:49:46.980Z,99.99
2023-03-08T06:50:46.791Z,99.83
2023-03-08T06:51:45.786Z,99.99
2023-03-08T06:52:45.797Z,99.93
2023-03-08T06:53:45.769Z,99.99
2023-03-08T06:54:45.758Z,99.83
2023-03-08T06:55:45.777Z,99.37
2023-03-08T06:56:45.763Z,99.37
2023-03-08T06:57:45.745Z,99.10
2023-03-08T06:58:45.729Z,98.95
2023-03-08T06:59:45.724Z,98.99
2023-03-08T07:00:45.750Z,98.16
2023-03-08T07:01:45.703Z,98.16
2023-03-08T07:02:45.707Z,98.37
2023-03-08T07:03:45.684Z,98.16
2023-03-08T07:04:47.464Z,98.68
2023-03-08T07:05:46.700Z,98.79
2023-03-08T07:06:45.654Z,98.99
2023-03-08T07:07:45.680Z,98.16
2023-03-08T07:08:45.654Z,98.52
2023-03-08T07:09:45.654Z,98.62
2023-03-08T07:10:45.659Z,98.93
2023-03-08T07:11:45.638Z,98.83
2023-03-08T07:12:46.689Z,99.19
2023-03-08T07:13:45.619Z,98.98
2023-03-08T07:14:45.605Z,98.98
2023-03-08T07:15:45.625Z,99.99
2023-03-08T07:16:45.582Z,99.99
2023-03-08T07:17:45.622Z,99.99
2023-03-08T07:18:45.569Z,99.99
2023-03-08T07:19:45.565Z,99.99
2023-03-08T07:20:45.599Z,99.99
2023-03-08T07:21:45.550Z,99.99
2023-03-08T07:22:45.543Z,99.99
2023-03-08T07:23:45.536Z,99.99
2023-03-08T07:24:45.525Z,99.99
2023-03-08T07:25:45.548Z,99.99
2023-03-08T07:26:45.514Z,99.99
2023-03-08T07:27:45.528Z,99.99
2023-03-08T07:28:45.500Z,99.99
2023-03-08T07:29:45.488Z,99.99
2023-03-08T07:30:45.510Z,99.99
2023-03-08T07:31:45.509Z,99.99
2023-03-08T07:32:46.614Z,99.99
2023-03-08T07:33:45.459Z,99.99
2023-03-08T07:34:45.461Z,99.99
2023-03-08T07:35:45.520Z,99.99
2023-03-08T07:36:45.441Z,99.99
2023-03-08T07:37:45.437Z,99.99
2023-03-08T07:38:45.425Z,99.99
2023-03-08T07:39:45.420Z,99.99
2023-03-08T07:40:45.427Z,99.99
2023-03-08T07:41:47.468Z,99.99
2023-03-08T07:42:46.425Z,99.99
2023-03-08T07:43:45.389Z,99.99
2023-03-08T07:44:45.429Z,99.99
2023-03-08T07:45:45.398Z,99.99
2023-03-08T07:46:45.442Z,99.99
2023-03-08T07:47:45.357Z,99.99
2023-03-08T07:48:45.352Z,99.99
2023-03-08T07:49:45.364Z,99.99
2023-03-08T07:50:45.369Z,99.99
2023-03-08T07:51:45.322Z,99.99
2023-03-08T07:52:45.313Z,99.99
2023-03-08T07:53:45.312Z,99.99
2023-03-08T07:54:45.306Z,99.99
2023-03-08T07:55:45.317Z,99.99
2023-03-08T07:56:45.282Z,99.99
2023-03-08T07:57:45.276Z,99.99
2023-03-08T07:58:45.268Z,99.99
2023-03-08T07:59:45.278Z,99.99
2023-03-08T08:00:45.278Z,99.99
2023-03-08T08:01:45.258Z,99.99
2023-03-08T08:02:45.267Z,99.99
2023-03-08T08:03:45.306Z,99.99
2023-03-08T08:04:45.229Z,99.99
2023-03-08T08:05:45.319Z,99.99
2023-03-08T08:06:45.205Z,99.99
2023-03-08T08:07:45.197Z,99.99
2023-03-08T08:08:45.193Z,99.99
2023-03-08T08:09:45.188Z,99.99
2023-03-08T08:10:45.214Z,99.99
2023-03-08T08:11:45.170Z,99.99
2023-03-08T08:12:45.159Z,99.99
2023-03-08T08:13:45.157Z,99.99
2023-03-08T08:14:45.262Z,99.99
2023-03-08T08:15:45.176Z,99.99
2023-03-08T08:16:45.200Z,99.99
2023-03-08T08:17:45.127Z,99.99
2023-03-08T08:18:45.112Z,99.99
2023-03-08T08:19:45.108Z,99.99
2023-03-08T08:20:45.117Z,99.99
2023-03-08T08:21:45.181Z,99.99
2023-03-08T08:22:45.076Z,99.99
2023-03-08T08:23:45.063Z,99.99
2023-03-08T08:24:46.067Z,99.99
2023-03-08T08:25:45.079Z,99.99
2023-03-08T08:26:45.074Z,99.99
2023-03-08T08:27:45.041Z,99.99
2023-03-08T08:28:45.027Z,99.99
2023-03-08T08:29:45.055Z,99.99
2023-03-08T08:30:45.040Z,99.99
2023-03-08T08:31:45.054Z,99.99
2023-03-08T08:32:45.062Z,99.99
2023-03-08T08:33:44.991Z,99.99
2023-03-08T08:34:44.986Z,99.99
2023-03-08T08:35:45.053Z,99.99
2023-03-08T08:36:44.969Z,99.99
2023-03-08T08:37:44.980Z,99.99
2023-03-08T08:38:44.947Z,99.99
2023-03-08T08:39:44.950Z,99.99
2023-03-08T08:40:44.964Z,99.99
2023-03-08T08:41:44.937Z,99.99
2023-03-08T08:42:44.906Z,99.99
2023-03-08T08:43:44.931Z,99.99
2023-03-08T08:44:45.036Z,99.99
2023-03-08T08:45:45.068Z,99.99
2023-03-08T08:46:44.890Z,99.99
2023-03-08T08:47:44.901Z,99.99
2023-03-08T08:48:44.863Z,99.99
2023-03-08T08:49:44.860Z,99.99
2023-03-08T08:50:44.929Z,99.99
2023-03-08T08:51:44.845Z,99.99
2023-03-08T08:52:44.909Z,99.99
2023-03-08T08:53:44.840Z,99.99
2023-03-08T08:54:44.919Z,99.99
2023-03-08T08:55:45.684Z,99.99
2023-03-08T08:56:45.945Z,99.99
2023-03-08T08:57:44.799Z,99.99
2023-03-08T08:58:44.792Z,99.99
2023-03-08T08:59:44.788Z,99.99
2023-03-08T09:00:44.787Z,99.99
2023-03-08T09:01:44.788Z,99.99
2023-03-08T09:02:44.867Z,99.99
2023-03-08T09:03:44.775Z,99.99
2023-03-08T09:04:45.045Z,99.99
2023-03-08T09:05:44.740Z,99.99
2023-03-08T09:06:44.769Z,99.99
2023-03-08T09:07:44.729Z,99.99
2023-03-08T09:08:44.721Z,99.99
2023-03-08T09:09:44.724Z,99.99
2023-03-08T09:10:44.715Z,99.99
2023-03-08T09:11:54.038Z,99.99
2023-03-08T09:12:46.745Z,99.99
2023-03-08T09:13:44.678Z,99.99
2023-03-08T09:14:44.680Z,99.99
2023-03-08T09:15:44.683Z,99.99
2023-03-08T09:16:44.796Z,99.99
2023-03-08T09:17:44.652Z,99.99
2023-03-08T09:18:44.649Z,99.99
2023-03-08T09:19:44.631Z,99.99
2023-03-08T09:20:44.628Z,99.99
2023-03-08T09:21:44.693Z,99.99
2023-03-08T09:22:44.617Z,99.99
2023-03-08T09:23:44.634Z,99.99
2023-03-08T09:24:44.598Z,99.99
2023-03-08T09:25:44.624Z,99.99
2023-03-08T09:26:44.618Z,99.99
2023-03-08T09:27:44.620Z,99.99
2023-03-08T09:28:44.614Z,99.99
2023-03-08T09:29:44.587Z,99.99
2023-03-08T09:30:44.575Z,99.99
2023-03-08T09:31:44.597Z,99.99
2023-03-08T09:32:44.721Z,99.99
2023-03-08T09:33:44.579Z,99.99
2023-03-08T09:34:44.581Z,99.99
2023-03-08T09:35:44.657Z,99.99
2023-03-08T09:36:44.603Z,99.99
2023-03-08T09:37:44.519Z,99.99
2023-03-08T09:38:44.533Z,99.99
2023-03-08T09:39:44.491Z,99.99
2023-03-08T09:40:44.491Z,99.99
2023-03-08T09:41:44.519Z,99.99
2023-03-08T09:42:44.508Z,99.99
2023-03-08T09:43:44.467Z,99.99
2023-03-08T09:44:44.455Z,99.99
2023-03-08T09:45:44.600Z,99.99
2023-03-08T09:46:44.479Z,99.99
2023-03-08T09:47:44.500Z,99.99
2023-03-08T09:48:44.433Z,99.99
2023-03-08T09:49:44.426Z,99.99
2023-03-08T09:50:44.422Z,99.99
2023-03-08T09:51:44.432Z,99.99
2023-03-08T09:52:44.413Z,99.99
2023-03-08T09:53:44.393Z,99.99
2023-03-08T09:54:44.416Z,99.99
2023-03-08T09:55:44.373Z,99.99
2023-03-08T09:56:44.393Z,99.99
2023-03-08T09:57:44.397Z,99.99
2023-03-08T09:58:44.349Z,99.99
2023-03-08T09:59:44.337Z,99.99
2023-03-08T10:00:44.361Z,99.99
2023-03-08T10:01:44.355Z,99.99
2023-03-08T10:02:44.348Z,99.99
2023-03-08T10:03:44.308Z,99.99
2023-03-08T10:04:44.314Z,99.99
2023-03-08T10:05:44.303Z,99.99
2023-03-08T10:06:44.323Z,99.99
2023-03-08T10:07:44.283Z,99.99
2023-03-08T10:08:44.271Z,99.99
2023-03-08T10:09:44.260Z,99.99
2023-03-08T10:10:44.253Z,99.99
2023-03-08T10:11:44.273Z,99.99
2023-03-08T10:12:44.244Z,99.99
2023-03-08T10:13:44.230Z,99.99
2023-03-08T10:14:44.227Z,99.99
2023-03-08T10:15:44.226Z,99.99
2023-03-08T10:16:44.289Z,99.99
2023-03-08T10:17:44.200Z,99.99
2023-03-08T10:18:44.195Z,99.99
2023-03-08T10:19:44.184Z,99.99
2023-03-08T10:20:44.201Z,99.99
2023-03-08T10:21:44.207Z,99.99
2023-03-08T10:22:44.188Z,99.99
2023-03-08T10:23:44.155Z,99.72
2023-03-08T10:24:44.145Z,98.88
2023-03-08T10:25:44.155Z,98.11
2023-03-08T10:26:44.171Z,97.59
2023-03-08T10:27:44.172Z,97.24
2023-03-08T10:28:44.120Z,96.51
2023-03-08T10:29:44.121Z,95.57
2023-03-08T10:30:44.163Z,95.11
2023-03-08T10:31:44.162Z,95.28
2023-03-08T10:32:44.137Z,93.87
2023-03-08T10:33:44.095Z,93.62
2023-03-08T10:34:44.091Z,92.36
2023-03-08T10:35:44.111Z,93.10
2023-03-08T10:36:44.106Z,92.53
2023-03-08T10:37:44.091Z,91.91
2023-03-08T10:38:44.060Z,91.37
2023-03-08T10:39:44.035Z,91.83
2023-03-08T10:40:44.033Z,92.74
2023-03-08T10:41:44.031Z,94.20
2023-03-08T10:42:44.043Z,94.64
2023-03-08T10:43:44.074Z,95.05
2023-03-08T10:44:44.000Z,94.38
2023-03-08T10:45:43.992Z,93.41
2023-03-08T10:46:43.992Z,92.88
2023-03-08T10:47:43.998Z,92.68
2023-03-08T10:48:43.984Z,91.53
2023-03-08T10:49:43.964Z,92.47
2023-03-08T10:50:43.973Z,91.74
2023-03-08T10:51:43.945Z,91.64
2023-03-08T10:52:43.993Z,91.28
2023-03-08T10:53:43.930Z,91.39
2023-03-08T10:54:43.948Z,91.39
2023-03-08T10:55:43.915Z,91.14
2023-03-08T10:56:43.905Z,91.03
2023-03-08T10:57:43.929Z,90.72
2023-03-08T10:58:43.890Z,89.86
2023-03-08T10:59:43.899Z,89.89
2023-03-08T11:00:43.881Z,90.02
2023-03-08T11:01:43.871Z,89.54
2023-03-08T11:02:43.886Z,89.65
2023-03-08T11:03:43.874Z,89.19
2023-03-08T11:04:43.870Z,89.13
2023-03-08T11:05:43.837Z,89.13
2023-03-08T11:06:43.842Z,88.82
2023-03-08T11:07:43.852Z,89.73
2023-03-08T11:08:43.841Z,90.04
2023-03-08T11:09:43.823Z,90.10
2023-03-08T11:10:43.830Z,89.69
2023-03-08T11:11:43.807Z,90.35
2023-03-08T11:12:43.859Z,90.62
2023-03-08T11:13:43.782Z,90.52
2023-03-08T11:14:43.833Z,90.06
2023-03-08T11:15:43.783Z,89.92
2023-03-08T11:16:43.747Z,89.71
2023-03-08T11:17:44.774Z,88.36
2023-03-08T11:18:43.830Z,88.57
2023-03-08T11:19:43.761Z,88.20
2023-03-08T11:20:43.820Z,89.03
2023-03-08T11:21:43.727Z,89.54
2023-03-08T11:22:43.737Z,88.61
2023-03-08T11:23:43.712Z,88.46
2023-03-08T11:24:43.702Z,88.26
2023-03-08T11:25:43.712Z,88.20
2023-03-08T11:26:43.732Z,89.37
2023-03-08T11:27:43.746Z,90.04
2023-03-08T11:28:43.702Z,90.25
2023-03-08T11:29:43.723Z,90.72
2023-03-08T11:30:43.639Z,90.56
2023-03-08T11:31:44.707Z,90.14
2023-03-08T11:32:43.868Z,90.29
2023-03-08T11:33:43.701Z,91.02
2023-03-08T11:34:43.615Z,91.74
2023-03-08T11:35:43.631Z,92.01
2023-03-08T11:36:43.605Z,90.93
2023-03-08T11:37:43.626Z,90.00
2023-03-08T11:38:43.598Z,90.45
2023-03-08T11:39:43.648Z,91.22
2023-03-08T11:40:43.656Z,91.74
2023-03-08T11:41:43.596Z,91.28
2023-03-08T11:42:43.599Z,91.43
2023-03-08T11:43:43.544Z,92.10
2023-03-08T11:44:43.542Z,92.51
2023-03-08T11:45:43.543Z,93.24
2023-03-08T11:46:44.560Z,93.35
2023-03-08T11:47:43.550Z,93.66
2023-03-08T11:48:43.553Z,93.76
2023-03-08T11:49:43.506Z,92.68
2023-03-08T11:50:43.515Z,92.76
2023-03-08T11:51:43.517Z,93.68
2023-03-08T11:52:43.519Z,94.20
2023-03-08T11:53:44.074Z,95.60
2023-03-08T11:54:44.462Z,97.06
2023-03-08T11:55:43.476Z,97.52
2023-03-08T11:56:43.454Z,98.04
2023-03-08T11:57:43.482Z,98.66
2023-03-08T11:58:43.448Z,99.13
2023-03-08T11:59:43.438Z,99.65
2023-03-08T12:00:43.430Z,99.75
2023-03-08T12:01:43.424Z,99.40
2023-03-08T12:02:43.439Z,99.71
2023-03-08T12:03:43.489Z,98.77
2023-03-08T12:04:43.536Z,98.77
2023-03-08T12:05:43.569Z,98.66
2023-03-08T12:06:43.472Z,99.81
2023-03-08T12:07:44.084Z,98.83
2023-03-08T12:08:43.393Z,98.77
2023-03-08T12:09:43.440Z,98.99
2023-03-08T12:10:43.345Z,98.99
2023-03-08T12:11:43.337Z,98.57
2023-03-08T12:12:43.348Z,98.16
2023-03-08T12:13:43.350Z,98.47
2023-03-08T12:14:43.317Z,98.47
2023-03-08T12:15:43.343Z,98.47
2023-03-08T12:16:43.412Z,98.22
2023-03-08T12:17:43.297Z,98.22
2023-03-08T12:18:43.311Z,97.13
2023-03-08T12:19:43.380Z,96.08
2023-03-08T12:20:43.269Z,96.70
2023-03-08T12:21:43.261Z,97.17
2023-03-08T12:22:43.327Z,96.51
2023-03-08T12:23:43.283Z,95.51
2023-03-08T12:24:43.273Z,96.39
2023-03-08T12:25:43.243Z,97.74
2023-03-08T12:26:43.254Z,97.43
2023-03-08T12:27:43.251Z,97.85
2023-03-08T12:28:43.264Z,97.53
2023-03-08T12:29:43.269Z,97.70
2023-03-08T12:30:43.197Z,97.28
2023-03-08T12:31:43.242Z,96.41
2023-03-08T12:32:43.350Z,96.30
2023-03-08T12:33:43.209Z,95.78
2023-03-08T12:34:43.165Z,95.42
2023-03-08T12:35:43.242Z,95.63
2023-03-08T12:36:43.229Z,94.22
2023-03-08T12:37:43.194Z,95.05
2023-03-08T12:38:43.276Z,95.26
2023-03-08T12:39:43.163Z,95.32
2023-03-08T12:40:43.152Z,94.96
2023-03-08T12:41:43.207Z,93.37
2023-03-08T12:42:43.118Z,91.95
2023-03-08T12:43:43.127Z,92.36
2023-03-08T12:44:43.095Z,93.41
2023-03-08T12:45:43.134Z,92.88
2023-03-08T12:46:56.158Z,92.47
2023-03-08T12:47:45.735Z,93.47
2023-03-08T12:48:43.117Z,93.22
2023-03-08T12:49:43.067Z,92.59
2023-03-08T12:50:43.105Z,91.20
2023-03-08T12:51:43.210Z,90.83
2023-03-08T12:52:43.089Z,90.79